sensor_id;sensor_type;location;lat;lon;timestamp;P1;durP1;ratioP1;P2;durP2;ratioP2
11731;SDS011;5922;53.734;10.258;2023-07-31T00:01:26;6.37;;;2.27;;
11731;SDS011;5922;53.734;10.258;2023-07-31T00:03:53;4.40;;;1.73;;
11731;SDS011;5922;53.734;10.258;2023-07-31T00:06:20;4.47;;;1.33;;
11731;SDS011;5922;53.734;10.258;2023-07-31T00:08:47;8.07;;;2.33;;
11731;SDS011;5922;53.734;10.258;2023-07-31T00:11:15;2.17;;;1.80;;
11731;SDS011;5922;53.734;10.258;2023-07-31T00:13:44;4.47;;;1.90;;
11731;SDS011;5922;53.734;10.258;2023-07-31T00:16:15;4.50;;;1.77;;
11731;SDS011;5922;53.734;10.258;2023-07-31T00:18:45;3.87;;;1.90;;
11731;SDS011;5922;53.734;10.258;2023-07-31T00:21:12;2.90;;;1.60;;
11731;SDS011;5922;53.734;10.258;2023-07-31T00:23:39;5.77;;;2.23;;
11731;SDS011;5922;53.734;10.258;2023-07-31T00:26:07;2.83;;;1.40;;
11731;SDS011;5922;53.734;10.258;2023-07-31T00:28:36;3.10;;;1.40;;
11731;SDS011;5922;53.734;10.258;2023-07-31T00:31:03;4.43;;;1.60;;
11731;SDS011;5922;53.734;10.258;2023-07-31T00:33:34;4.87;;;1.90;;
11731;SDS011;5922;53.734;10.258;2023-07-31T00:36:01;2.87;;;1.60;;
11731;SDS011;5922;53.734;10.258;2023-07-31T00:38:28;5.70;;;2.00;;
11731;SDS011;5922;53.734;10.258;2023-07-31T00:40:56;7.83;;;2.40;;
11731;SDS011;5922;53.734;10.258;2023-07-31T00:43:24;6.10;;;2.00;;
11731;SDS011;5922;53.734;10.258;2023-07-31T00:45:51;4.10;;;1.60;;
11731;SDS011;5922;53.734;10.258;2023-07-31T00:48:18;3.23;;;1.63;;
11731;SDS011;5922;53.734;10.258;2023-07-31T00:50:47;5.53;;;1.67;;
11731;SDS011;5922;53.734;10.258;2023-07-31T00:53:14;4.87;;;1.67;;
11731;SDS011;5922;53.734;10.258;2023-07-31T00:55:42;5.67;;;2.00;;
11731;SDS011;5922;53.734;10.258;2023-07-31T00:58:09;7.40;;;2.33;;
11731;SDS011;5922;53.734;10.258;2023-07-31T01:00:36;6.73;;;1.87;;
11731;SDS011;5922;53.734;10.258;2023-07-31T01:03:03;2.80;;;1.97;;
11731;SDS011;5922;53.734;10.258;2023-07-31T01:05:33;5.23;;;1.90;;
11731;SDS011;5922;53.734;10.258;2023-07-31T01:08:07;3.67;;;1.77;;
11731;SDS011;5922;53.734;10.258;2023-07-31T01:10:37;4.90;;;2.17;;
11731;SDS011;5922;53.734;10.258;2023-07-31T01:13:05;3.83;;;1.93;;
11731;SDS011;5922;53.734;10.258;2023-07-31T01:15:33;5.70;;;1.70;;
11731;SDS011;5922;53.734;10.258;2023-07-31T01:18:00;4.47;;;1.80;;
11731;SDS011;5922;53.734;10.258;2023-07-31T01:20:32;3.93;;;1.63;;
11731;SDS011;5922;53.734;10.258;2023-07-31T01:25:50;7.70;;;1.93;;
11731;SDS011;5922;53.734;10.258;2023-07-31T01:28:19;5.23;;;2.10;;
11731;SDS011;5922;53.734;10.258;2023-07-31T01:30:49;6.07;;;2.30;;
11731;SDS011;5922;53.734;10.258;2023-07-31T01:33:19;5.97;;;1.83;;
11731;SDS011;5922;53.734;10.258;2023-07-31T01:35:49;5.90;;;2.40;;
11731;SDS011;5922;53.734;10.258;2023-07-31T01:38:25;6.43;;;2.10;;
11731;SDS011;5922;53.734;10.258;2023-07-31T01:41:10;5.13;;;2.03;;
11731;SDS011;5922;53.734;10.258;2023-07-31T01:43:38;6.67;;;2.03;;
11731;SDS011;5922;53.734;10.258;2023-07-31T01:46:05;9.10;;;2.13;;
11731;SDS011;5922;53.734;10.258;2023-07-31T01:48:44;3.00;;;1.60;;
11731;SDS011;5922;53.734;10.258;2023-07-31T01:51:12;4.87;;;2.10;;
11731;SDS011;5922;53.734;10.258;2023-07-31T01:53:44;6.97;;;2.43;;
11731;SDS011;5922;53.734;10.258;2023-07-31T01:56:15;6.60;;;2.20;;
11731;SDS011;5922;53.734;10.258;2023-07-31T01:58:42;3.57;;;1.73;;
11731;SDS011;5922;53.734;10.258;2023-07-31T02:01:14;3.67;;;2.30;;
11731;SDS011;5922;53.734;10.258;2023-07-31T02:03:50;5.17;;;2.20;;
11731;SDS011;5922;53.734;10.258;2023-07-31T02:06:22;6.97;;;1.83;;
11731;SDS011;5922;53.734;10.258;2023-07-31T02:08:52;3.30;;;1.90;;
11731;SDS011;5922;53.734;10.258;2023-07-31T02:11:23;4.60;;;2.03;;
11731;SDS011;5922;53.734;10.258;2023-07-31T02:13:50;6.70;;;2.40;;
11731;SDS011;5922;53.734;10.258;2023-07-31T02:16:17;6.10;;;2.07;;
11731;SDS011;5922;53.734;10.258;2023-07-31T02:18:45;5.77;;;2.20;;
11731;SDS011;5922;53.734;10.258;2023-07-31T02:21:14;4.33;;;1.90;;
11731;SDS011;5922;53.734;10.258;2023-07-31T02:23:49;12.80;;;2.87;;
11731;SDS011;5922;53.734;10.258;2023-07-31T02:26:16;4.80;;;2.40;;
11731;SDS011;5922;53.734;10.258;2023-07-31T02:28:49;6.07;;;2.17;;
11731;SDS011;5922;53.734;10.258;2023-07-31T02:31:16;6.40;;;2.47;;
11731;SDS011;5922;53.734;10.258;2023-07-31T02:33:44;8.17;;;2.40;;
11731;SDS011;5922;53.734;10.258;2023-07-31T02:36:11;3.53;;;2.20;;
11731;SDS011;5922;53.734;10.258;2023-07-31T02:38:39;6.73;;;2.40;;
11731;SDS011;5922;53.734;10.258;2023-07-31T02:41:06;7.83;;;2.43;;
11731;SDS011;5922;53.734;10.258;2023-07-31T02:43:33;7.83;;;2.10;;
11731;SDS011;5922;53.734;10.258;2023-07-31T02:46:02;7.10;;;2.07;;
11731;SDS011;5922;53.734;10.258;2023-07-31T02:48:29;6.23;;;2.90;;
11731;SDS011;5922;53.734;10.258;2023-07-31T02:50:56;4.87;;;2.30;;
11731;SDS011;5922;53.734;10.258;2023-07-31T02:53:26;4.33;;;2.20;;
11731;SDS011;5922;53.734;10.258;2023-07-31T02:55:53;5.63;;;2.30;;
11731;SDS011;5922;53.734;10.258;2023-07-31T02:58:20;5.63;;;2.10;;
11731;SDS011;5922;53.734;10.258;2023-07-31T03:00:48;8.10;;;2.40;;
11731;SDS011;5922;53.734;10.258;2023-07-31T03:03:19;4.43;;;2.13;;
11731;SDS011;5922;53.734;10.258;2023-07-31T03:05:48;6.43;;;2.20;;
11731;SDS011;5922;53.734;10.258;2023-07-31T03:08:16;4.87;;;2.00;;
11731;SDS011;5922;53.734;10.258;2023-07-31T03:10:46;6.03;;;2.53;;
11731;SDS011;5922;53.734;10.258;2023-07-31T03:13:20;7.17;;;2.40;;
11731;SDS011;5922;53.734;10.258;2023-07-31T03:15:47;3.87;;;2.30;;
11731;SDS011;5922;53.734;10.258;2023-07-31T03:18:19;4.40;;;2.13;;
11731;SDS011;5922;53.734;10.258;2023-07-31T03:20:46;4.00;;;2.27;;
11731;SDS011;5922;53.734;10.258;2023-07-31T03:23:18;5.47;;;2.77;;
11731;SDS011;5922;53.734;10.258;2023-07-31T03:25:55;6.20;;;2.20;;
11731;SDS011;5922;53.734;10.258;2023-07-31T03:28:28;6.23;;;2.37;;
11731;SDS011;5922;53.734;10.258;2023-07-31T03:30:55;4.43;;;2.50;;
11731;SDS011;5922;53.734;10.258;2023-07-31T03:33:26;4.90;;;2.30;;
11731;SDS011;5922;53.734;10.258;2023-07-31T03:35:56;5.10;;;2.20;;
11731;SDS011;5922;53.734;10.258;2023-07-31T03:38:23;6.10;;;1.90;;
11731;SDS011;5922;53.734;10.258;2023-07-31T03:40:55;4.47;;;2.10;;
11731;SDS011;5922;53.734;10.258;2023-07-31T03:43:23;7.10;;;2.27;;
11731;SDS011;5922;53.734;10.258;2023-07-31T03:45:51;7.73;;;2.60;;
11731;SDS011;5922;53.734;10.258;2023-07-31T03:48:18;6.07;;;2.43;;
11731;SDS011;5922;53.734;10.258;2023-07-31T03:50:46;4.10;;;2.10;;
11731;SDS011;5922;53.734;10.258;2023-07-31T03:53:14;7.67;;;2.70;;
11731;SDS011;5922;53.734;10.258;2023-07-31T03:55:41;4.23;;;2.23;;
11731;SDS011;5922;53.734;10.258;2023-07-31T03:58:10;4.33;;;2.13;;
11731;SDS011;5922;53.734;10.258;2023-07-31T04:00:39;6.13;;;2.33;;
11731;SDS011;5922;53.734;10.258;2023-07-31T04:03:09;5.40;;;2.27;;
11731;SDS011;5922;53.734;10.258;2023-07-31T04:05:37;4.87;;;2.53;;
11731;SDS011;5922;53.734;10.258;2023-07-31T04:08:08;4.67;;;2.47;;
11731;SDS011;5922;53.734;10.258;2023-07-31T04:10:43;6.40;;;2.30;;
11731;SDS011;5922;53.734;10.258;2023-07-31T04:13:10;6.97;;;2.33;;
11731;SDS011;5922;53.734;10.258;2023-07-31T04:15:38;5.17;;;2.30;;
11731;SDS011;5922;53.734;10.258;2023-07-31T04:18:05;4.07;;;2.30;;
11731;SDS011;5922;53.734;10.258;2023-07-31T04:20:32;4.23;;;2.60;;
11731;SDS011;5922;53.734;10.258;2023-07-31T04:23:00;3.10;;;2.20;;
11731;SDS011;5922;53.734;10.258;2023-07-31T04:25:28;4.00;;;2.23;;
11731;SDS011;5922;53.734;10.258;2023-07-31T04:27:56;4.27;;;2.40;;
11731;SDS011;5922;53.734;10.258;2023-07-31T04:30:27;3.20;;;2.43;;
11731;SDS011;5922;53.734;10.258;2023-07-31T04:33:10;5.87;;;2.93;;
11731;SDS011;5922;53.734;10.258;2023-07-31T04:35:38;5.47;;;2.73;;
11731;SDS011;5922;53.734;10.258;2023-07-31T04:38:05;4.90;;;2.20;;
11731;SDS011;5922;53.734;10.258;2023-07-31T04:40:34;5.27;;;2.50;;
11731;SDS011;5922;53.734;10.258;2023-07-31T04:43:01;4.87;;;2.40;;
11731;SDS011;5922;53.734;10.258;2023-07-31T04:45:29;4.33;;;2.60;;
11731;SDS011;5922;53.734;10.258;2023-07-31T04:47:56;4.77;;;2.33;;
11731;SDS011;5922;53.734;10.258;2023-07-31T04:50:23;3.73;;;2.50;;
11731;SDS011;5922;53.734;10.258;2023-07-31T04:52:51;3.80;;;2.40;;
11731;SDS011;5922;53.734;10.258;2023-07-31T04:55:18;2.97;;;1.97;;
11731;SDS011;5922;53.734;10.258;2023-07-31T04:57:47;2.30;;;2.10;;
11731;SDS011;5922;53.734;10.258;2023-07-31T05:00:15;3.70;;;2.20;;
11731;SDS011;5922;53.734;10.258;2023-07-31T05:02:42;4.37;;;2.27;;
11731;SDS011;5922;53.734;10.258;2023-07-31T05:05:09;2.30;;;2.10;;
11731;SDS011;5922;53.734;10.258;2023-07-31T05:07:36;2.13;;;1.93;;
11731;SDS011;5922;53.734;10.258;2023-07-31T05:10:04;4.73;;;2.30;;
11731;SDS011;5922;53.734;10.258;2023-07-31T05:12:31;3.10;;;2.10;;
11731;SDS011;5922;53.734;10.258;2023-07-31T05:15:00;1.80;;;1.70;;
11731;SDS011;5922;53.734;10.258;2023-07-31T05:17:30;3.53;;;2.17;;
11731;SDS011;5922;53.734;10.258;2023-07-31T05:19:57;2.37;;;1.90;;
11731;SDS011;5922;53.734;10.258;2023-07-31T05:22:24;3.33;;;2.00;;
11731;SDS011;5922;53.734;10.258;2023-07-31T05:24:51;2.73;;;1.90;;
11731;SDS011;5922;53.734;10.258;2023-07-31T05:27:19;2.60;;;1.93;;
11731;SDS011;5922;53.734;10.258;2023-07-31T05:29:46;1.93;;;1.77;;
11731;SDS011;5922;53.734;10.258;2023-07-31T05:32:15;1.97;;;1.80;;
11731;SDS011;5922;53.734;10.258;2023-07-31T05:34:42;2.00;;;1.63;;
11731;SDS011;5922;53.734;10.258;2023-07-31T05:37:09;1.83;;;1.70;;
11731;SDS011;5922;53.734;10.258;2023-07-31T05:39:37;1.90;;;1.80;;
11731;SDS011;5922;53.734;10.258;2023-07-31T05:42:07;1.60;;;1.47;;
11731;SDS011;5922;53.734;10.258;2023-07-31T05:44:34;2.77;;;1.63;;
11731;SDS011;5922;53.734;10.258;2023-07-31T05:47:02;3.40;;;1.80;;
11731;SDS011;5922;53.734;10.258;2023-07-31T05:49:38;2.30;;;1.80;;
11731;SDS011;5922;53.734;10.258;2023-07-31T05:52:05;1.93;;;1.80;;
11731;SDS011;5922;53.734;10.258;2023-07-31T05:54:35;2.90;;;1.93;;
11731;SDS011;5922;53.734;10.258;2023-07-31T05:57:03;4.30;;;1.57;;
11731;SDS011;5922;53.734;10.258;2023-07-31T05:59:30;3.53;;;1.83;;
11731;SDS011;5922;53.734;10.258;2023-07-31T06:01:58;3.07;;;1.77;;
11731;SDS011;5922;53.734;10.258;2023-07-31T06:04:25;2.10;;;1.50;;
11731;SDS011;5922;53.734;10.258;2023-07-31T06:06:54;2.20;;;1.53;;
11731;SDS011;5922;53.734;10.258;2023-07-31T06:09:21;1.60;;;1.50;;
11731;SDS011;5922;53.734;10.258;2023-07-31T06:11:49;1.50;;;1.40;;
11731;SDS011;5922;53.734;10.258;2023-07-31T06:14:16;1.70;;;1.60;;
11731;SDS011;5922;53.734;10.258;2023-07-31T06:16:43;2.37;;;1.67;;
11731;SDS011;5922;53.734;10.258;2023-07-31T06:19:10;1.60;;;1.50;;
11731;SDS011;5922;53.734;10.258;2023-07-31T06:21:38;1.80;;;1.43;;
11731;SDS011;5922;53.734;10.258;2023-07-31T06:24:08;1.53;;;1.40;;
11731;SDS011;5922;53.734;10.258;2023-07-31T06:26:37;2.50;;;1.50;;
11731;SDS011;5922;53.734;10.258;2023-07-31T06:29:04;1.50;;;1.40;;
11731;SDS011;5922;53.734;10.258;2023-07-31T06:31:32;2.60;;;1.50;;
11731;SDS011;5922;53.734;10.258;2023-07-31T06:33:59;3.33;;;1.80;;
11731;SDS011;5922;53.734;10.258;2023-07-31T06:36:26;1.40;;;1.30;;
11731;SDS011;5922;53.734;10.258;2023-07-31T06:38:54;2.10;;;1.67;;
11731;SDS011;5922;53.734;10.258;2023-07-31T06:41:25;1.40;;;1.30;;
11731;SDS011;5922;53.734;10.258;2023-07-31T06:43:53;1.93;;;1.43;;
11731;SDS011;5922;53.734;10.258;2023-07-31T06:46:20;1.47;;;1.37;;
11731;SDS011;5922;53.734;10.258;2023-07-31T06:48:47;2.60;;;1.53;;
11731;SDS011;5922;53.734;10.258;2023-07-31T06:51:14;1.50;;;1.40;;
11731;SDS011;5922;53.734;10.258;2023-07-31T06:53:42;1.40;;;1.30;;
11731;SDS011;5922;53.734;10.258;2023-07-31T06:56:10;1.47;;;1.37;;
11731;SDS011;5922;53.734;10.258;2023-07-31T06:58:39;1.50;;;1.40;;
11731;SDS011;5922;53.734;10.258;2023-07-31T07:01:06;1.47;;;1.37;;
11731;SDS011;5922;53.734;10.258;2023-07-31T07:03:33;1.60;;;1.50;;
11731;SDS011;5922;53.734;10.258;2023-07-31T07:06:01;1.60;;;1.50;;
11731;SDS011;5922;53.734;10.258;2023-07-31T07:08:28;1.73;;;1.47;;
11731;SDS011;5922;53.734;10.258;2023-07-31T07:10:55;1.60;;;1.50;;
11731;SDS011;5922;53.734;10.258;2023-07-31T07:13:22;1.73;;;1.63;;
11731;SDS011;5922;53.734;10.258;2023-07-31T07:15:51;1.60;;;1.50;;
11731;SDS011;5922;53.734;10.258;2023-07-31T07:18:18;2.43;;;1.70;;
11731;SDS011;5922;53.734;10.258;2023-07-31T07:20:46;1.67;;;1.57;;
11731;SDS011;5922;53.734;10.258;2023-07-31T07:23:14;1.50;;;1.40;;
11731;SDS011;5922;53.734;10.258;2023-07-31T07:25:41;1.53;;;1.43;;
11731;SDS011;5922;53.734;10.258;2023-07-31T07:28:08;1.40;;;1.30;;
11731;SDS011;5922;53.734;10.258;2023-07-31T07:30:36;1.60;;;1.50;;
11731;SDS011;5922;53.734;10.258;2023-07-31T07:33:05;1.47;;;1.37;;
11731;SDS011;5922;53.734;10.258;2023-07-31T07:35:33;1.53;;;1.40;;
11731;SDS011;5922;53.734;10.258;2023-07-31T07:38:00;1.40;;;1.30;;
11731;SDS011;5922;53.734;10.258;2023-07-31T07:40:27;1.47;;;1.37;;
11731;SDS011;5922;53.734;10.258;2023-07-31T07:42:54;2.07;;;1.40;;
11731;SDS011;5922;53.734;10.258;2023-07-31T07:45:21;1.47;;;1.30;;
11731;SDS011;5922;53.734;10.258;2023-07-31T07:47:49;1.80;;;1.30;;
11731;SDS011;5922;53.734;10.258;2023-07-31T07:50:17;1.30;;;1.20;;
11731;SDS011;5922;53.734;10.258;2023-07-31T07:52:45;1.27;;;1.20;;
11731;SDS011;5922;53.734;10.258;2023-07-31T07:55:12;1.53;;;1.20;;
11731;SDS011;5922;53.734;10.258;2023-07-31T07:57:42;3.93;;;1.40;;
11731;SDS011;5922;53.734;10.258;2023-07-31T08:02:54;1.30;;;1.20;;
11731;SDS011;5922;53.734;10.258;2023-07-31T08:05:24;1.10;;;1.10;;
11731;SDS011;5922;53.734;10.258;2023-07-31T08:08:01;1.53;;;1.20;;
11731;SDS011;5922;53.734;10.258;2023-07-31T08:10:33;1.30;;;1.20;;
11731;SDS011;5922;53.734;10.258;2023-07-31T08:13:01;1.90;;;1.10;;
11731;SDS011;5922;53.734;10.258;2023-07-31T08:15:40;1.13;;;1.10;;
11731;SDS011;5922;53.734;10.258;2023-07-31T08:18:08;2.40;;;1.00;;
11731;SDS011;5922;53.734;10.258;2023-07-31T08:20:37;1.30;;;1.30;;
11731;SDS011;5922;53.734;10.258;2023-07-31T08:23:09;1.27;;;1.17;;
11731;SDS011;5922;53.734;10.258;2023-07-31T08:25:37;1.10;;;1.10;;
11731;SDS011;5922;53.734;10.258;2023-07-31T08:28:04;1.10;;;1.10;;
11731;SDS011;5922;53.734;10.258;2023-07-31T08:30:34;1.27;;;1.17;;
11731;SDS011;5922;53.734;10.258;2023-07-31T08:33:01;1.33;;;1.23;;
11731;SDS011;5922;53.734;10.258;2023-07-31T08:35:28;1.30;;;1.20;;
11731;SDS011;5922;53.734;10.258;2023-07-31T08:37:57;1.30;;;1.20;;
11731;SDS011;5922;53.734;10.258;2023-07-31T08:40:24;1.53;;;1.20;;
11731;SDS011;5922;53.734;10.258;2023-07-31T08:43:01;1.27;;;1.20;;
11731;SDS011;5922;53.734;10.258;2023-07-31T08:45:45;2.30;;;1.27;;
11731;SDS011;5922;53.734;10.258;2023-07-31T08:48:23;1.10;;;1.10;;
11731;SDS011;5922;53.734;10.258;2023-07-31T08:51:02;1.20;;;1.13;;
11731;SDS011;5922;53.734;10.258;2023-07-31T08:53:31;3.17;;;1.40;;
11731;SDS011;5922;53.734;10.258;2023-07-31T08:56:08;1.37;;;1.27;;
11731;SDS011;5922;53.734;10.258;2023-07-31T08:58:36;1.47;;;1.37;;
11731;SDS011;5922;53.734;10.258;2023-07-31T09:01:06;1.60;;;1.33;;
11731;SDS011;5922;53.734;10.258;2023-07-31T09:03:34;1.43;;;1.33;;
11731;SDS011;5922;53.734;10.258;2023-07-31T09:06:06;1.50;;;1.40;;
11731;SDS011;5922;53.734;10.258;2023-07-31T09:11:25;1.67;;;1.57;;
11731;SDS011;5922;53.734;10.258;2023-07-31T09:13:53;1.50;;;1.40;;
11731;SDS011;5922;53.734;10.258;2023-07-31T09:16:33;1.70;;;1.60;;
11731;SDS011;5922;53.734;10.258;2023-07-31T09:19:00;2.03;;;1.60;;
11731;SDS011;5922;53.734;10.258;2023-07-31T09:21:47;1.70;;;1.60;;
11731;SDS011;5922;53.734;10.258;2023-07-31T09:24:31;1.60;;;1.50;;
11731;SDS011;5922;53.734;10.258;2023-07-31T09:27:16;1.50;;;1.40;;
11731;SDS011;5922;53.734;10.258;2023-07-31T09:29:44;1.83;;;1.50;;
11731;SDS011;5922;53.734;10.258;2023-07-31T09:32:32;1.40;;;1.30;;
11731;SDS011;5922;53.734;10.258;2023-07-31T09:35:00;1.50;;;1.40;;
11731;SDS011;5922;53.734;10.258;2023-07-31T09:37:29;1.37;;;1.27;;
11731;SDS011;5922;53.734;10.258;2023-07-31T09:39:56;2.60;;;1.23;;
11731;SDS011;5922;53.734;10.258;2023-07-31T09:42:25;1.10;;;1.10;;
11731;SDS011;5922;53.734;10.258;2023-07-31T09:44:54;1.87;;;1.40;;
11731;SDS011;5922;53.734;10.258;2023-07-31T09:47:36;1.50;;;1.40;;
11731;SDS011;5922;53.734;10.258;2023-07-31T09:50:07;1.57;;;1.40;;
11731;SDS011;5922;53.734;10.258;2023-07-31T09:52:38;1.40;;;1.30;;
11731;SDS011;5922;53.734;10.258;2023-07-31T09:55:05;1.40;;;1.30;;
11731;SDS011;5922;53.734;10.258;2023-07-31T09:57:43;2.60;;;1.20;;
11731;SDS011;5922;53.734;10.258;2023-07-31T10:00:14;1.23;;;1.13;;
11731;SDS011;5922;53.734;10.258;2023-07-31T10:02:43;1.33;;;1.23;;
11731;SDS011;5922;53.734;10.258;2023-07-31T10:05:19;1.33;;;1.23;;
11731;SDS011;5922;53.734;10.258;2023-07-31T10:07:53;1.50;;;1.30;;
11731;SDS011;5922;53.734;10.258;2023-07-31T10:10:21;1.30;;;1.20;;
11731;SDS011;5922;53.734;10.258;2023-07-31T10:12:53;1.27;;;1.10;;
11731;SDS011;5922;53.734;10.258;2023-07-31T10:15:21;1.27;;;1.17;;
11731;SDS011;5922;53.734;10.258;2023-07-31T10:17:48;1.37;;;1.27;;
11731;SDS011;5922;53.734;10.258;2023-07-31T10:20:19;1.40;;;1.30;;
11731;SDS011;5922;53.734;10.258;2023-07-31T10:22:47;1.67;;;1.27;;
11731;SDS011;5922;53.734;10.258;2023-07-31T10:25:20;1.80;;;1.50;;
11731;SDS011;5922;53.734;10.258;2023-07-31T10:27:48;2.43;;;1.33;;
11731;SDS011;5922;53.734;10.258;2023-07-31T10:30:24;1.30;;;1.10;;
11731;SDS011;5922;53.734;10.258;2023-07-31T10:32:53;1.40;;;1.30;;
11731;SDS011;5922;53.734;10.258;2023-07-31T10:35:23;1.20;;;1.10;;
11731;SDS011;5922;53.734;10.258;2023-07-31T10:37:50;1.00;;;1.00;;
11731;SDS011;5922;53.734;10.258;2023-07-31T10:40:23;2.13;;;1.37;;
11731;SDS011;5922;53.734;10.258;2023-07-31T10:42:51;1.00;;;1.00;;
11731;SDS011;5922;53.734;10.258;2023-07-31T10:45:32;1.87;;;1.40;;
11731;SDS011;5922;53.734;10.258;2023-07-31T10:48:02;1.10;;;1.00;;
11731;SDS011;5922;53.734;10.258;2023-07-31T10:50:29;0.93;;;0.93;;
11731;SDS011;5922;53.734;10.258;2023-07-31T10:53:00;1.43;;;1.10;;
11731;SDS011;5922;53.734;10.258;2023-07-31T10:55:30;1.20;;;1.10;;
11731;SDS011;5922;53.734;10.258;2023-07-31T10:58:09;2.13;;;1.20;;
11731;SDS011;5922;53.734;10.258;2023-07-31T11:00:38;1.20;;;1.10;;
11731;SDS011;5922;53.734;10.258;2023-07-31T11:03:06;1.40;;;1.10;;
11731;SDS011;5922;53.734;10.258;2023-07-31T11:05:41;1.63;;;0.90;;
11731;SDS011;5922;53.734;10.258;2023-07-31T11:08:12;1.07;;;1.07;;
11731;SDS011;5922;53.734;10.258;2023-07-31T11:10:39;0.80;;;0.80;;
11731;SDS011;5922;53.734;10.258;2023-07-31T11:13:07;1.00;;;0.90;;
11731;SDS011;5922;53.734;10.258;2023-07-31T11:15:34;0.97;;;0.80;;
11731;SDS011;5922;53.734;10.258;2023-07-31T11:18:03;3.17;;;0.70;;
11731;SDS011;5922;53.734;10.258;2023-07-31T11:20:33;0.60;;;0.60;;
11731;SDS011;5922;53.734;10.258;2023-07-31T11:23:03;0.97;;;0.60;;
11731;SDS011;5922;53.734;10.258;2023-07-31T11:25:32;0.73;;;0.70;;
11731;SDS011;5922;53.734;10.258;2023-07-31T11:28:01;0.70;;;0.70;;
11731;SDS011;5922;53.734;10.258;2023-07-31T11:30:29;0.50;;;0.50;;
11731;SDS011;5922;53.734;10.258;2023-07-31T11:32:56;0.83;;;0.50;;
11731;SDS011;5922;53.734;10.258;2023-07-31T11:35:27;0.50;;;0.50;;
11731;SDS011;5922;53.734;10.258;2023-07-31T11:37:54;0.50;;;0.50;;
11731;SDS011;5922;53.734;10.258;2023-07-31T11:40:22;0.50;;;0.43;;
11731;SDS011;5922;53.734;10.258;2023-07-31T11:42:53;0.43;;;0.43;;
11731;SDS011;5922;53.734;10.258;2023-07-31T11:45:21;0.50;;;0.50;;
11731;SDS011;5922;53.734;10.258;2023-07-31T11:47:48;0.97;;;0.93;;
11731;SDS011;5922;53.734;10.258;2023-07-31T11:50:16;0.87;;;0.80;;
11731;SDS011;5922;53.734;10.258;2023-07-31T11:52:48;1.50;;;0.87;;
11731;SDS011;5922;53.734;10.258;2023-07-31T11:55:17;1.07;;;0.80;;
11731;SDS011;5922;53.734;10.258;2023-07-31T11:57:44;0.83;;;0.80;;
11731;SDS011;5922;53.734;10.258;2023-07-31T12:00:15;0.90;;;0.90;;
11731;SDS011;5922;53.734;10.258;2023-07-31T12:02:43;1.23;;;0.87;;
11731;SDS011;5922;53.734;10.258;2023-07-31T12:05:12;1.10;;;1.00;;
11731;SDS011;5922;53.734;10.258;2023-07-31T12:07:49;1.57;;;1.00;;
11731;SDS011;5922;53.734;10.258;2023-07-31T12:10:29;0.80;;;0.80;;
11731;SDS011;5922;53.734;10.258;2023-07-31T12:13:00;1.13;;;0.83;;
11731;SDS011;5922;53.734;10.258;2023-07-31T12:15:34;0.87;;;0.87;;
11731;SDS011;5922;53.734;10.258;2023-07-31T12:18:05;0.73;;;0.73;;
11731;SDS011;5922;53.734;10.258;2023-07-31T12:20:33;0.87;;;0.87;;
11731;SDS011;5922;53.734;10.258;2023-07-31T12:23:02;1.90;;;1.00;;
11731;SDS011;5922;53.734;10.258;2023-07-31T12:25:30;1.17;;;1.10;;
11731;SDS011;5922;53.734;10.258;2023-07-31T12:27:58;1.20;;;1.10;;
11731;SDS011;5922;53.734;10.258;2023-07-31T12:30:32;1.00;;;1.00;;
11731;SDS011;5922;53.734;10.258;2023-07-31T12:33:02;2.07;;;1.03;;
11731;SDS011;5922;53.734;10.258;2023-07-31T12:35:34;1.00;;;1.00;;
11731;SDS011;5922;53.734;10.258;2023-07-31T12:38:03;2.13;;;1.10;;
11731;SDS011;5922;53.734;10.258;2023-07-31T12:40:31;0.97;;;0.90;;
11731;SDS011;5922;53.734;10.258;2023-07-31T12:43:00;0.87;;;0.87;;
11731;SDS011;5922;53.734;10.258;2023-07-31T12:45:28;1.20;;;1.00;;
11731;SDS011;5922;53.734;10.258;2023-07-31T12:48:03;1.50;;;0.83;;
11731;SDS011;5922;53.734;10.258;2023-07-31T12:50:34;1.10;;;1.00;;
11731;SDS011;5922;53.734;10.258;2023-07-31T12:53:07;1.30;;;0.90;;
11731;SDS011;5922;53.734;10.258;2023-07-31T12:55:40;0.80;;;0.80;;
11731;SDS011;5922;53.734;10.258;2023-07-31T12:58:08;1.33;;;0.80;;
11731;SDS011;5922;53.734;10.258;2023-07-31T13:00:41;1.27;;;1.00;;
11731;SDS011;5922;53.734;10.258;2023-07-31T13:03:11;1.20;;;1.10;;
11731;SDS011;5922;53.734;10.258;2023-07-31T13:05:42;3.20;;;0.90;;
11731;SDS011;5922;53.734;10.258;2023-07-31T13:08:15;1.10;;;1.03;;
11731;SDS011;5922;53.734;10.258;2023-07-31T13:10:50;0.90;;;0.90;;
11731;SDS011;5922;53.734;10.258;2023-07-31T13:13:20;0.87;;;0.83;;
11731;SDS011;5922;53.734;10.258;2023-07-31T13:16:03;0.87;;;0.87;;
11731;SDS011;5922;53.734;10.258;2023-07-31T13:18:43;1.27;;;1.17;;
11731;SDS011;5922;53.734;10.258;2023-07-31T13:21:18;1.20;;;1.07;;
11731;SDS011;5922;53.734;10.258;2023-07-31T13:23:50;1.40;;;1.30;;
11731;SDS011;5922;53.734;10.258;2023-07-31T13:26:22;2.50;;;1.57;;
11731;SDS011;5922;53.734;10.258;2023-07-31T13:28:50;1.83;;;1.43;;
11731;SDS011;5922;53.734;10.258;2023-07-31T13:31:17;1.60;;;1.40;;
11731;SDS011;5922;53.734;10.258;2023-07-31T13:33:44;2.67;;;1.40;;
11731;SDS011;5922;53.734;10.258;2023-07-31T13:36:12;1.40;;;1.30;;
11731;SDS011;5922;53.734;10.258;2023-07-31T13:38:40;3.10;;;1.30;;
11731;SDS011;5922;53.734;10.258;2023-07-31T13:41:16;1.20;;;1.10;;
11731;SDS011;5922;53.734;10.258;2023-07-31T13:43:45;1.40;;;1.30;;
11731;SDS011;5922;53.734;10.258;2023-07-31T13:46:12;1.60;;;1.20;;
11731;SDS011;5922;53.734;10.258;2023-07-31T13:48:40;2.57;;;0.90;;
11731;SDS011;5922;53.734;10.258;2023-07-31T13:51:07;1.80;;;1.27;;
11731;SDS011;5922;53.734;10.258;2023-07-31T13:53:34;1.00;;;1.00;;
11731;SDS011;5922;53.734;10.258;2023-07-31T13:56:02;1.40;;;1.30;;
11731;SDS011;5922;53.734;10.258;2023-07-31T13:58:30;1.43;;;1.30;;
11731;SDS011;5922;53.734;10.258;2023-07-31T14:00:58;1.97;;;1.30;;
11731;SDS011;5922;53.734;10.258;2023-07-31T14:03:25;1.50;;;1.40;;
11731;SDS011;5922;53.734;10.258;2023-07-31T14:06:01;1.47;;;1.27;;
11731;SDS011;5922;53.734;10.258;2023-07-31T14:08:28;1.20;;;1.10;;
11731;SDS011;5922;53.734;10.258;2023-07-31T14:11:00;1.00;;;1.00;;
11731;SDS011;5922;53.734;10.258;2023-07-31T14:13:27;1.33;;;1.23;;
11731;SDS011;5922;53.734;10.258;2023-07-31T14:16:02;2.03;;;1.10;;
11731;SDS011;5922;53.734;10.258;2023-07-31T14:18:29;1.60;;;1.10;;
11731;SDS011;5922;53.734;10.258;2023-07-31T14:20:56;1.77;;;1.20;;
11731;SDS011;5922;53.734;10.258;2023-07-31T14:23:37;1.93;;;1.30;;
11731;SDS011;5922;53.734;10.258;2023-07-31T14:26:05;1.50;;;1.30;;
11731;SDS011;5922;53.734;10.258;2023-07-31T14:28:32;1.73;;;1.17;;
11731;SDS011;5922;53.734;10.258;2023-07-31T14:30:59;2.20;;;1.37;;
11731;SDS011;5922;53.734;10.258;2023-07-31T14:33:28;1.43;;;1.33;;
11731;SDS011;5922;53.734;10.258;2023-07-31T14:35:55;4.70;;;1.30;;
11731;SDS011;5922;53.734;10.258;2023-07-31T14:38:22;1.17;;;1.13;;
11731;SDS011;5922;53.734;10.258;2023-07-31T14:40:50;1.53;;;1.13;;
11731;SDS011;5922;53.734;10.258;2023-07-31T14:43:27;1.60;;;1.40;;
11731;SDS011;5922;53.734;10.258;2023-07-31T14:45:54;1.13;;;1.03;;
11731;SDS011;5922;53.734;10.258;2023-07-31T14:48:25;2.60;;;1.20;;
11731;SDS011;5922;53.734;10.258;2023-07-31T14:50:55;1.20;;;1.10;;
11731;SDS011;5922;53.734;10.258;2023-07-31T14:53:22;1.00;;;0.97;;
11731;SDS011;5922;53.734;10.258;2023-07-31T14:55:50;1.90;;;1.30;;
11731;SDS011;5922;53.734;10.258;2023-07-31T14:58:17;1.77;;;1.13;;
11731;SDS011;5922;53.734;10.258;2023-07-31T15:00:44;2.03;;;1.50;;
11731;SDS011;5922;53.734;10.258;2023-07-31T15:03:12;1.30;;;1.20;;
11731;SDS011;5922;53.734;10.258;2023-07-31T15:05:39;4.27;;;1.10;;
11731;SDS011;5922;53.734;10.258;2023-07-31T15:08:12;1.23;;;1.07;;
11731;SDS011;5922;53.734;10.258;2023-07-31T15:10:39;1.27;;;1.17;;